Bans from mc.auscraft.org

Ban ID Player Name Banned By Ban Reason Date Issued Reputation
Global 5559842 juanguppy ultima84 xraying, logblock confirmed 2016-08-21 06:32:13 7.36 / 10
Local 5558878 drewbzz ultima84 rude/offensive/attempted to DoS server 2016-08-15 14:55:30 9.2 / 10
Global 5557731 strom_surge ultima84 griefing, logblock confirmed 2016-08-07 10:06:42 7.36 / 10
Local 5557648 honnydew12321 ultima84 griefing, logblock confirmed 2016-08-06 12:06:32 10 / 10
Global 5556949 jtb7101 ultima84 theft and griefing, logblock confirmed 2016-08-01 08:10:09 7.36 / 10
Global 5555992 zombiehunter2121 ultima84 griefing, logblock confirmed 2016-07-25 07:56:54 7.36 / 10
Global 5555988 steven09678 console Griefing, Logblock confirmed 2016-07-25 06:35:03 7.36 / 10
Local 5555987 sittingwheat69 console offensive 2016-07-25 06:34:29 10 / 10
Local 5555986 steven09678 console excessive profanity [ENDS 2016-07-25 06:41:03] 2016-07-25 06:31:03 7.36 / 10
Global 5555880 goobo69 ultima84 griefing, logblock confirmed 2016-07-24 15:05:53 7.36 / 10
Global 5555879 iamninelives ultima84 griefing, logblock confirmed 2016-07-24 15:04:58 7.36 / 10
Global 5555860 acez43 ultima84 griefing and xray, logblock confirmed 2016-07-24 11:19:14 7.36 / 10
Global 5555259 macnefic89 somevixen griefing, logblock confirmed 2016-07-20 07:38:00 7.36 / 10
Local 5555124 the_only_captain ultima84 abusing a duplication glitch [ENDS 2016-08-09 11:09:54] 2016-07-19 11:09:54 10 / 10
Global 5555020 hdog174 ultima84 xraying, logblock confirmed 2016-07-18 11:15:35 5.11 / 10
Global 5555016 shadowspirit2 ultima84 xraying, logblock confirmed 2016-07-18 10:54:38 7.36 / 10
Local 5554941 xoggax console alt of chabana (griefing) 2016-07-17 22:47:09 10 / 10
Global 5554940 chabana console griefing, logblock confirmed 2016-07-17 22:46:32 7.36 / 10
Global 5554939 bluemonkey101 console griefing, logblock confirmed 2016-07-17 22:46:15 7.36 / 10
Global 5554124 dscrafter02 ultima84 xraying, logblock confirmed 2016-07-10 13:19:10 7.36 / 10
Local 5554001 dixdixon console excessive profanity [ENDS 2016-07-09 09:15:36] 2016-07-09 09:05:36 10 / 10
Global 5553637 itz_sestan ultima84 griefing, logblock confirmed 2016-07-05 09:42:29 7.36 / 10
Global 5553636 mochipew ultima84 griefing, logblock confirmed 2016-07-05 08:59:11 7.36 / 10
Global 5553635 limabeanz_ ultima84 griefing, logblock confirmed 2016-07-05 08:57:15 7.36 / 10
Local 5553559 srg_silver console excessive profanity [ENDS 2016-07-04 07:18:31] 2016-07-04 07:08:31 10 / 10
Ban ID Player Name Banned By Ban Reason Date Issued Reputation
Showing 101 to 125 of 1645 entries